Walesville, New York
Current Conditions -  °F | °C
As of 8:06 AM on Thursday 18 Dec 2014 (Local Time) from KRME Reporting Station
Light Snow Light Snow  
Wind Chill: 20°   Ceiling: 1100
Heat Index: 30°   Visibility: 1.2mi
Dew Point: 28°   Wind: 13mph
Humidity: 92%   Direction: 270°W
Pressure: 29.98"   Gusts: 20mph
Location:  43.1203°N, 75.3249°W
Report Text: KRME 181306Z 27011G17KT 1 1/4SM -SN BR OVC011 M01/M02 A2998 RMK AO2 P0000 T10111022
Loading
Personal Weather Stations






























Interactive Weather Map New forecast layout! Learn more

10-Day Weather Forecast

Advertisements
Track Severe Weather on mobile